Time;durP1;ratioP1;P1;durP2;ratioP2;P2;SDS_P1;SDS_P2;PMS_P1;PMS_P2;Temp;Humidity;BMP_temperature;BMP_pressure;BME280_temperature;BME280_humidity;BME280_pressure;Samples;Min_cycle;Max_cycle;Signal;HPM_P1;HPM_P2
2022/08/30 00:03:51;;;;;;;9.15;7.18;;;;;;;15.59;100.00;101920.78;5093469;28;20544;-76
2022/08/30 00:09:37;;;;;;;12.60;7.38;;;;;;;15.62;100.00;101906.88;5093272;28;20093;-74
2022/08/30 00:15:25;;;;;;;12.63;7.20;;;;;;;15.48;100.00;101910.69;5092943;28;20277;-74
2022/08/30 00:21:13;;;;;;;10.00;6.30;;;;;;;15.35;100.00;101905.41;5093329;28;20494;-74
2022/08/30 00:27:00;;;;;;;10.13;6.95;;;;;;;15.32;100.00;101903.13;5093233;28;20392;-74
2022/08/30 00:32:47;;;;;;;13.90;6.80;;;;;;;15.27;100.00;101913.75;5092538;28;20066;-74
2022/08/30 00:35:15;;;;;;;11.75;7.22;;;;;;;15.23;100.00;101913.38;5074618;28;20031;-74
2022/08/30 00:41:02;;;;;;;14.45;7.32;;;;;;;15.17;100.00;101915.06;5093071;28;20125;-75
2022/08/30 00:46:49;;;;;;;11.45;6.13;;;;;;;15.18;100.00;101910.50;5092887;28;20101;-75
2022/08/30 00:49:14;;;;;;;11.65;7.13;;;;;;;15.22;100.00;101913.59;5074322;28;20028;-74
2022/08/30 00:51:40;;;;;;;13.40;6.32;;;;;;;15.19;100.00;101915.69;5095431;28;20048;-75
2022/08/30 00:54:06;;;;;;;10.52;6.85;;;;;;;15.18;100.00;101913.19;5074501;28;20123;-74
2022/08/30 00:56:33;;;;;;;9.10;6.45;;;;;;;15.15;100.00;101916.34;5095532;28;20036;-74
2022/08/30 00:59:03;;;;;;;11.07;6.50;;;;;;;15.11;100.00;101910.56;5092201;28;20394;-74
2022/08/30 01:01:29;;;;;;;11.57;6.85;;;;;;;15.09;100.00;101918.03;5092392;28;20064;-74
2022/08/30 01:03:54;;;;;;;11.35;7.03;;;;;;;15.04;100.00;101917.88;5077468;28;20636;-74
2022/08/30 01:09:41;;;;;;;11.07;6.22;;;;;;;15.05;100.00;101921.38;5092786;28;20047;-74
2022/08/30 01:12:07;;;;;;;11.95;6.70;;;;;;;15.13;100.00;101919.25;5092136;28;20032;-73
2022/08/30 01:17:55;;;;;;;10.40;6.38;;;;;;;15.31;100.00;101920.34;5092226;28;20035;-74
2022/08/30 01:20:28;;;;;;;10.82;7.25;;;;;;;15.32;100.00;101928.22;5074035;28;20117;-74
2022/08/30 01:22:53;;;;;;;8.73;6.55;;;;;;;15.33;100.00;101929.06;5085798;28;20044;-74
2022/08/30 01:25:23;;;;;;;10.73;6.20;;;;;;;15.29;100.00;101925.13;5091950;28;20051;-74
2022/08/30 01:28:02;;;;;;;13.45;6.43;;;;;;;15.31;100.00;101929.25;5077104;28;20044;-75
2022/08/30 01:30:29;;;;;;;12.10;6.13;;;;;;;15.35;100.00;101935.06;5091933;28;20491;-75
2022/08/30 01:33:01;;;;;;;13.48;6.90;;;;;;;15.38;100.00;101938.16;5093195;28;20032;-74
2022/08/30 01:38:52;;;;;;;11.10;6.68;;;;;;;15.41;100.00;101920.72;5091908;28;20490;-75
2022/08/30 01:44:39;;;;;;;10.60;6.28;;;;;;;15.28;100.00;101921.63;5092785;28;20439;-75
2022/08/30 01:47:04;;;;;;;13.07;7.07;;;;;;;15.19;100.00;101918.38;5098310;28;20044;-74
2022/08/30 01:49:30;;;;;;;11.43;6.78;;;;;;;15.16;100.00;101921.50;5077159;28;20356;-74
2022/08/30 01:51:56;;;;;;;6.90;5.82;;;;;;;15.11;100.00;101915.94;5098391;28;20085;-74
2022/08/30 01:54:21;;;;;;;11.15;7.32;;;;;;;15.09;100.00;101912.66;5095392;28;20020;-74
2022/08/30 01:56:47;;;;;;;9.07;6.82;;;;;;;15.03;100.00;101916.19;5077027;28;20028;-75
2022/08/30 01:59:12;;;;;;;9.57;6.80;;;;;;;14.96;100.00;101923.50;5097975;28;20102;-75
2022/08/30 02:01:38;;;;;;;8.73;6.47;;;;;;;14.91;100.00;101926.00;5076972;28;20270;-75
2022/08/30 02:04:06;;;;;;;14.00;7.40;;;;;;;14.91;100.00;101925.19;5095695;28;20028;-75
2022/08/30 02:06:31;;;;;;;13.10;7.10;;;;;;;14.89;100.00;101922.72;5079288;28;20584;-76
2022/08/30 02:08:57;;;;;;;9.55;6.45;;;;;;;14.91;100.00;101925.19;5094941;28;20031;-76
2022/08/30 02:11:22;;;;;;;11.25;7.93;;;;;;;14.91;100.00;101909.03;5080252;28;20044;-75
2022/08/30 02:13:47;;;;;;;9.50;7.27;;;;;;;14.92;100.00;101919.59;5095129;28;20432;-75
2022/08/30 02:16:16;;;;;;;14.40;7.25;;;;;;;14.95;100.00;101915.63;5076652;28;20331;-75
2022/08/30 02:18:42;;;;;;;10.48;6.78;;;;;;;14.91;100.00;101912.53;5097571;28;20051;-75
2022/08/30 02:24:29;;;;;;;9.02;7.00;;;;;;;14.81;100.00;101906.81;5095016;28;20480;-74
2022/08/30 02:26:54;;;;;;;8.87;6.77;;;;;;;14.83;100.00;101910.94;5094364;28;20028;-74
2022/08/30 02:29:21;;;;;;;10.68;7.00;;;;;;;14.84;100.00;101909.91;5079263;28;20389;-74
2022/08/30 02:31:47;;;;;;;9.15;6.85;;;;;;;14.85;100.00;101908.84;5094226;28;20043;-74
2022/08/30 02:34:12;;;;;;;9.45;7.07;;;;;;;14.85;100.00;101905.34;5076317;28;20028;-74
2022/08/30 02:40:00;;;;;;;11.35;7.45;;;;;;;14.87;100.00;101911.31;5094904;28;20047;-75
2022/08/30 02:42:25;;;;;;;11.75;7.18;;;;;;;14.85;100.00;101910.72;5097715;28;20048;-75
2022/08/30 02:44:50;;;;;;;11.23;6.80;;;;;;;14.80;100.00;101907.84;5076522;28;20070;-74
2022/08/30 02:47:15;;;;;;;10.50;8.00;;;;;;;14.76;100.00;101906.63;5094368;28;20296;-75
2022/08/30 02:53:02;;;;;;;16.05;7.88;;;;;;;14.70;100.00;101902.91;5094929;28;20139;-75
2022/08/30 02:55:28;;;;;;;12.43;8.15;;;;;;;14.75;100.00;101907.69;5097403;28;20074;-75
2022/08/30 02:57:53;;;;;;;12.00;8.40;;;;;;;14.75;100.00;101891.53;5093242;28;20440;-75
2022/08/30 03:00:20;;;;;;;11.70;8.10;;;;;;;14.79;100.00;101895.44;5078072;28;20278;-75
2022/08/30 03:02:45;;;;;;;22.35;8.90;;;;;;;14.76;100.00;101888.63;5095234;28;20092;-75
2022/08/30 03:05:12;;;;;;;12.98;8.13;;;;;;;14.74;100.00;101887.16;5094260;28;20028;-75
2022/08/30 03:07:41;;;;;;;11.35;8.35;;;;;;;14.66;100.00;101880.16;5097149;28;20495;-75
2022/08/30 03:10:07;;;;;;;11.18;8.00;;;;;;;14.64;100.00;101881.41;5094165;28;20035;-74
2022/08/30 03:12:32;;;;;;;11.77;8.68;;;;;;;14.59;100.00;101876.69;5095395;28;20035;-75
2022/08/30 03:18:20;;;;;;;12.15;8.85;;;;;;;14.56;100.00;101887.88;5094274;28;20047;-76
2022/08/30 03:20:46;;;;;;;14.95;9.02;;;;;;;14.50;100.00;101884.19;5079205;28;20067;-76
2022/08/30 03:23:11;;;;;;;13.55;9.10;;;;;;;14.51;100.00;101893.91;5093909;28;20424;-75
2022/08/30 03:25:38;;;;;;;11.52;8.68;;;;;;;14.50;100.00;101892.25;5096970;28;20047;-74
2022/08/30 03:28:04;;;;;;;13.82;8.65;;;;;;;14.54;100.00;101892.66;5075652;28;20522;-74
2022/08/30 03:30:29;;;;;;;10.65;8.98;;;;;;;14.56;100.00;101894.09;5093732;28;20111;-75
2022/08/30 03:32:54;;;;;;;12.02;9.77;;;;;;;14.60;100.00;101890.97;5096933;28;20540;-75
2022/08/30 03:35:20;;;;;;;10.63;8.63;;;;;;;14.63;100.00;101882.47;5093742;28;20119;-74
2022/08/30 03:37:46;;;;;;;12.45;8.60;;;;;;;14.69;100.00;101895.06;5096575;28;20043;-74
2022/08/30 03:40:13;;;;;;;14.75;9.40;;;;;;;14.73;100.00;101891.72;5093695;28;20443;-75
2022/08/30 03:46:01;;;;;;;12.25;9.73;;;;;;;14.79;100.00;101890.88;5093900;28;20039;-75
2022/08/30 03:48:27;;;;;;;14.13;9.30;;;;;;;14.72;100.00;101878.47;5093649;28;20042;-75
2022/08/30 03:50:53;;;;;;;12.65;9.60;;;;;;;14.76;100.00;101879.72;5096546;28;20510;-75
2022/08/30 03:56:40;;;;;;;17.08;10.02;;;;;;;14.70;100.00;101892.16;5093873;28;20047;-75
2022/08/30 03:59:05;;;;;;;14.57;10.02;;;;;;;14.61;100.00;101871.91;5074942;28;20032;-75
2022/08/30 04:04:52;;;;;;;16.33;9.88;;;;;;;14.64;100.00;101892.19;5093582;28;20127;-74
2022/08/30 04:07:18;;;;;;;12.47;10.23;;;;;;;14.58;100.00;101888.50;5092814;28;20107;-75
2022/08/30 04:09:44;;;;;;;16.40;11.20;;;;;;;14.61;100.00;101895.31;5096131;28;20285;-75
2022/08/30 04:12:12;;;;;;;13.52;9.82;;;;;;;14.59;100.00;101890.16;5093172;28;20405;-75
2022/08/30 04:14:37;;;;;;;15.23;10.15;;;;;;;14.55;100.00;101892.44;5078127;28;20063;-75
2022/08/30 04:17:03;;;;;;;14.50;10.80;;;;;;;14.52;100.00;101895.56;5093122;28;20464;-74
2022/08/30 04:19:28;;;;;;;12.02;10.30;;;;;;;14.48;100.00;101896.22;5093035;28;20288;-75
2022/08/30 04:21:53;;;;;;;14.43;9.93;;;;;;;14.45;100.00;101893.91;5096006;28;20074;-76
2022/08/30 04:24:19;;;;;;;13.07;10.35;;;;;;;14.43;100.00;101901.38;5093048;28;20530;-76
2022/08/30 04:30:06;;;;;;;16.45;10.75;;;;;;;14.35;100.00;101905.13;5093036;28;20305;-75
2022/08/30 04:35:53;;;;;;;13.32;10.98;;;;;;;14.33;100.00;101909.06;5093114;28;20047;-75
2022/08/30 04:38:20;;;;;;;15.43;11.50;;;;;;;14.33;100.00;101906.38;5074484;28;20024;-75
2022/08/30 04:40:48;;;;;;;16.25;12.02;;;;;;;14.32;100.00;101908.22;5095597;28;20677;-75
2022/08/30 04:46:36;;;;;;;15.60;11.98;;;;;;;14.32;100.00;101905.53;5092952;28;20106;-75
2022/08/30 04:49:03;;;;;;;16.38;11.63;;;;;;;14.35;100.00;101912.38;5092497;28;20085;-75
2022/08/30 04:51:28;;;;;;;16.33;11.80;;;;;;;14.38;100.00;101904.69;5095500;28;21465;-75
2022/08/30 04:53:53;;;;;;;16.85;12.30;;;;;;;14.36;100.00;101912.16;5092562;28;20510;-75
2022/08/30 04:56:21;;;;;;;15.73;12.93;;;;;;;14.40;100.00;101929.53;5074442;28;20039;-75
2022/08/30 05:02:09;;;;;;;17.65;11.68;;;;;;;14.32;100.00;101919.00;5092743;28;20093;-75
2022/08/30 05:04:35;;;;;;;16.90;11.60;;;;;;;14.32;100.00;101921.69;5095438;28;20039;-75
2022/08/30 05:07:00;;;;;;;17.92;12.30;;;;;;;14.35;100.00;101923.13;5092301;28;20049;-75
2022/08/30 05:09:26;;;;;;;16.17;12.73;;;;;;;14.34;100.00;101916.09;5092268;28;20529;-75
2022/08/30 05:11:51;;;;;;;15.05;11.85;;;;;;;14.34;100.00;101918.78;5095479;28;20491;-75
2022/08/30 05:14:16;;;;;;;18.03;12.37;;;;;;;14.32;100.00;101924.38;5092158;28;20088;-75
2022/08/30 05:16:41;;;;;;;15.90;12.63;;;;;;;14.34;100.00;101930.38;5095127;28;20290;-75
2022/08/30 05:19:07;;;;;;;16.65;12.82;;;;;;;14.35;100.00;101926.66;5091212;28;20282;-75
2022/08/30 05:21:32;;;;;;;17.25;12.95;;;;;;;14.36;100.00;101933.69;5092165;28;20107;-76
2022/08/30 05:23:59;;;;;;;17.73;13.00;;;;;;;14.38;100.00;101934.28;5077434;28;20097;-76
2022/08/30 05:29:46;;;;;;;22.35;14.07;;;;;;;14.56;100.00;101939.84;5092380;28;20105;-75
2022/08/30 05:35:33;;;;;;;14.95;12.00;;;;;;;15.02;100.00;101940.66;5092364;28;20108;-74
2022/08/30 05:41:22;;;;;;;15.07;11.52;;;;;;;15.36;100.00;101942.94;5092190;28;20493;-74
2022/08/30 05:43:48;;;;;;;20.73;12.63;;;;;;;15.41;100.00;101948.50;5073343;28;20030;-74
2022/08/30 05:46:18;;;;;;;18.33;12.57;;;;;;;15.50;100.00;101946.34;5091592;28;20028;-75
2022/08/30 05:52:05;;;;;;;17.65;13.27;;;;;;;15.86;100.00;101944.81;5092013;28;20092;-76
2022/08/30 05:54:31;;;;;;;14.80;12.48;;;;;;;15.92;100.00;101944.78;5094600;28;20036;-76
2022/08/30 05:56:56;;;;;;;17.83;13.20;;;;;;;15.96;100.00;101945.16;5091451;28;20032;-73
2022/08/30 05:59:21;;;;;;;19.53;13.53;;;;;;;15.93;100.00;101946.41;5094639;28;20056;-75
2022/08/30 06:08:30;;;;;;;16.77;12.82;;;;;;;16.68;100.00;101943.53;5091875;28;20054;-76
2022/08/30 06:10:55;;;;;;;14.70;12.27;;;;;;;16.99;100.00;101935.19;5093040;28;20028;-75
2022/08/30 06:13:21;;;;;;;18.67;12.93;;;;;;;17.49;100.00;101934.03;5075186;28;20048;-76
2022/08/30 06:15:46;;;;;;;20.95;12.80;;;;;;;18.23;100.00;101940.66;5073466;28;20619;-75
2022/08/30 06:18:12;;;;;;;16.55;11.98;;;;;;;18.96;98.03;101955.44;5076674;28;20060;-75
2022/08/30 06:20:40;;;;;;;13.80;11.15;;;;;;;19.64;94.14;101947.16;5073649;28;20115;-75
2022/08/30 06:23:07;;;;;;;12.40;11.13;;;;;;;20.29;90.72;101948.38;5074046;28;20020;-75
2022/08/30 06:25:36;;;;;;;17.02;10.95;;;;;;;20.72;86.69;101956.53;5093282;28;20492;-75
2022/08/30 06:28:01;;;;;;;12.88;10.35;;;;;;;21.00;83.46;101955.50;5091171;28;20032;-75
2022/08/30 06:30:26;;;;;;;14.75;10.48;;;;;;;21.19;82.12;101941.53;5076641;28;20043;-75
2022/08/30 06:32:52;;;;;;;13.93;10.70;;;;;;;21.69;80.67;101945.78;5094771;28;20181;-75
2022/08/30 06:35:17;;;;;;;11.50;9.63;;;;;;;21.81;77.14;101939.06;5094795;28;20281;-76
2022/08/30 06:37:42;;;;;;;13.00;10.05;;;;;;;21.84;76.52;101943.97;5097255;28;20297;-76
2022/08/30 06:40:09;;;;;;;13.82;9.57;;;;;;;22.20;75.64;101952.41;5076516;28;20472;-77
2022/08/30 06:42:34;;;;;;;11.00;8.70;;;;;;;22.71;73.15;101947.16;5079649;28;20052;-76
2022/08/30 06:45:00;;;;;;;13.57;8.80;;;;;;;22.94;70.43;101943.97;5076582;28;20073;-76
2022/08/30 06:47:27;;;;;;;11.50;9.20;;;;;;;23.03;70.61;101947.00;5095707;28;20753;-77
2022/08/30 06:49:52;;;;;;;10.25;9.15;;;;;;;23.32;68.86;101942.66;5096301;28;20472;-76
2022/08/30 06:52:17;;;;;;;12.63;9.27;;;;;;;23.23;66.88;101940.75;5076426;28;20059;-75
2022/08/30 06:54:43;;;;;;;10.75;8.27;;;;;;;23.10;67.06;101934.72;5079374;28;20278;-76
2022/08/30 06:57:08;;;;;;;9.73;8.32;;;;;;;23.19;67.41;101932.28;5094334;28;20494;-75
2022/08/30 06:59:34;;;;;;;11.68;8.80;;;;;;;23.21;66.96;101927.38;5095353;28;20036;-75
2022/08/30 07:01:59;;;;;;;9.53;8.43;;;;;;;23.60;66.46;101941.31;5096110;28;20040;-76
2022/08/30 07:04:25;;;;;;;10.27;8.07;;;;;;;23.96;63.49;101936.59;5094204;28;20365;-75
2022/08/30 07:06:50;;;;;;;9.82;8.00;;;;;;;24.09;62.70;101949.69;5097316;28;20129;-75
2022/08/30 07:09:16;;;;;;;8.98;7.68;;;;;;;24.38;61.26;101938.97;5094416;28;20032;-76
2022/08/30 07:11:42;;;;;;;8.55;7.57;;;;;;;24.80;60.59;101945.88;5094439;28;20024;-75
2022/08/30 07:23:36;;;;;;;9.27;7.20;;;;;;;24.75;57.86;101961.50;5094463;28;20067;-75
2022/08/30 07:26:06;;;;;;;12.35;6.72;;;;;;;23.95;61.27;101967.75;5096932;28;20032;-76
2022/08/30 07:28:33;;;;;;;12.35;7.40;;;;;;;24.07;62.13;101967.47;5075698;28;20063;-75
2022/08/30 07:30:58;;;;;;;8.50;7.15;;;;;;;24.83;59.02;101961.72;5096833;28;20121;-75
2022/08/30 07:33:24;;;;;;;9.45;6.68;;;;;;;25.13;57.37;101962.66;5093971;28;20405;-75
2022/08/30 07:35:50;;;;;;;8.75;6.78;;;;;;;25.04;57.00;101951.50;5092512;28;20032;-76
2022/08/30 07:38:15;;;;;;;8.30;6.40;;;;;;;25.55;56.36;101957.41;5078723;28;20377;-74
2022/08/30 07:40:40;;;;;;;6.50;5.60;;;;;;;25.99;55.47;101964.66;5093598;28;20380;-74
2022/08/30 07:43:05;;;;;;;9.20;5.70;;;;;;;25.05;56.86;101964.09;5095755;28;20384;-74
2022/08/30 07:48:54;;;;;;;8.63;5.95;;;;;;;25.12;56.37;101964.56;5093873;28;20046;-75
2022/08/30 07:51:22;;;;;;;8.35;6.00;;;;;;;25.50;55.77;101960.19;5093339;28;20016;-75
2022/08/30 07:53:47;;;;;;;8.55;5.70;;;;;;;25.96;52.93;101964.44;5093500;28;20081;-73
2022/08/30 07:59:34;;;;;;;9.07;5.95;;;;;;;25.06;54.84;101959.44;5093424;28;20335;-74
2022/08/30 08:01:59;;;;;;;7.63;5.70;;;;;;;24.61;57.23;101966.78;5096568;28;20032;-75
2022/08/30 08:04:25;;;;;;;7.82;5.72;;;;;;;24.72;57.79;101971.09;5093205;28;20032;-75
2022/08/30 08:06:50;;;;;;;10.57;6.10;;;;;;;24.85;56.80;101969.63;5093598;28;20073;-75
2022/08/30 08:09:15;;;;;;;8.00;4.97;;;;;;;24.72;56.29;101973.81;5095918;28;20032;-75
2022/08/30 08:11:40;;;;;;;7.88;5.82;;;;;;;24.42;57.50;101963.84;5093171;28;20293;-75
2022/08/30 08:14:07;;;;;;;8.80;5.32;;;;;;;24.66;57.93;101969.50;5096198;28;20051;-76
2022/08/30 08:16:34;;;;;;;8.90;5.25;;;;;;;24.84;56.56;101971.56;5093210;28;20020;-75
2022/08/30 08:18:59;;;;;;;5.75;4.60;;;;;;;24.49;56.93;101969.81;5076731;28;20036;-74
2022/08/30 08:21:25;;;;;;;7.43;5.22;;;;;;;24.58;56.51;101978.28;5075954;28;20036;-75
2022/08/30 08:23:51;;;;;;;6.30;4.93;;;;;;;24.80;55.96;101973.22;5092970;28;20047;-75
2022/08/30 08:26:17;;;;;;;8.13;4.80;;;;;;;24.74;55.82;101984.50;5078227;28;20032;-75
2022/08/30 08:28:45;;;;;;;8.57;5.22;;;;;;;25.00;56.56;101973.16;5092954;28;20032;-75
2022/08/30 08:34:34;;;;;;;6.07;4.30;;;;;;;25.23;54.72;101979.03;5093124;28;20110;-75
2022/08/30 08:36:59;;;;;;;4.78;4.28;;;;;;;25.64;52.92;101974.84;5095661;28;20040;-75
2022/08/30 08:39:25;;;;;;;6.17;4.70;;;;;;;26.20;51.50;101979.81;5074471;28;20026;-76
2022/08/30 08:42:17;;;;;;;7.50;4.60;;;;;;;26.40;50.67;101981.53;5092694;28;20039;-76
2022/08/30 08:44:42;;;;;;;;;;;;;;;26.23;51.19;101981.97;5085427;28;20044;-75
2022/08/30 08:47:11;;;;;;;8.52;4.63;;;;;;;26.06;51.27;101983.53;5074411;28;19923;-76
2022/08/30 08:49:39;;;;;;;10.98;4.93;;;;;;;25.58;51.02;101980.66;5095580;28;20427;-75
2022/08/30 08:55:00;;;;;;;7.20;4.20;;;;;;;24.56;54.25;101989.47;5066378;28;20100;-77
2022/08/30 08:57:32;;;;;;;4.13;3.50;;;;;;;24.51;54.15;101986.75;5092237;28;20071;-74
2022/08/30 08:59:58;;;;;;;7.43;4.03;;;;;;;24.04;55.78;101987.16;5092002;28;20028;-75
2022/08/30 09:02:28;;;;;;;5.57;4.07;;;;;;;23.64;57.71;101996.19;5095070;28;20046;-75
2022/08/30 09:04:57;;;;;;;5.13;3.72;;;;;;;23.71;58.25;101997.59;5073778;28;20028;-75
2022/08/30 09:07:28;;;;;;;11.23;4.43;;;;;;;24.17;55.99;101980.28;5077172;28;20488;-75
2022/08/30 09:09:55;;;;;;;6.18;3.80;;;;;;;24.59;54.55;101988.13;5092078;28;20028;-75
2022/08/30 09:12:21;;;;;;;6.75;3.80;;;;;;;25.16;52.99;101976.63;5093672;28;20055;-76
2022/08/30 09:14:52;;;;;;;7.43;4.85;;;;;;;25.23;52.28;101985.31;5093801;28;20102;-74
2022/08/30 09:17:19;;;;;;;5.63;4.10;;;;;;;24.66;54.06;101983.16;5074135;28;20032;-75
2022/08/30 09:19:51;;;;;;;7.20;3.85;;;;;;;24.51;55.42;101984.03;5095570;28;20047;-75
2022/08/30 09:25:29;;;;;;;3.90;3.50;;;;;;;24.18;56.42;101985.47;5092138;28;19926;-75
2022/08/30 09:28:12;;;;;;;6.00;4.60;;;;;;;24.00;55.62;101975.16;5092167;28;20460;-75
2022/08/30 09:30:38;;;;;;;6.00;3.35;;;;;;;24.40;55.41;101980.53;5095164;28;20434;-75
2022/08/30 09:33:16;;;;;;;8.32;3.85;;;;;;;24.63;54.14;101981.81;5073765;28;20028;-75
2022/08/30 09:35:47;;;;;;;9.00;4.00;;;;;;;24.95;54.08;101980.56;5094526;28;20122;-76
2022/08/30 09:38:20;;;;;;;4.03;3.60;;;;;;;25.02;53.78;101989.28;5092031;28;20024;-74
2022/08/30 09:40:47;;;;;;;;;;;;;;;25.07;54.18;101985.69;5092260;28;20030;-76
2022/08/30 09:43:15;;;;;;;5.72;3.83;;;;;;;25.02;53.08;101984.63;5094821;28;20003;-75
2022/08/30 09:45:42;;;;;;;6.55;4.15;;;;;;;25.27;52.79;101983.66;5091810;28;20084;-75
2022/08/30 09:48:25;;;;;;;6.65;3.45;;;;;;;25.50;52.40;101982.09;5094783;28;20059;-75
2022/08/30 09:51:08;;;;;;;6.93;3.60;;;;;;;25.72;52.33;101973.44;5091954;28;20395;-75
2022/08/30 09:53:43;;;;;;;7.00;3.53;;;;;;;25.69;51.16;101978.69;5076832;28;20039;-75
2022/08/30 09:59:45;;;;;;;8.60;4.07;;;;;;;25.38;51.40;101978.09;5091532;28;20090;-74
2022/08/30 10:02:46;;;;;;;5.38;3.75;;;;;;;25.29;52.41;101980.63;5073400;28;20547;-75
2022/08/30 10:05:37;;;;;;;6.70;3.17;;;;;;;24.89;52.10;101960.59;5094494;28;20052;-75
2022/08/30 10:08:16;;;;;;;6.28;3.30;;;;;;;25.03;51.22;101977.25;5095186;28;20039;-75
2022/08/30 10:10:51;;;;;;;4.18;2.85;;;;;;;25.05;51.15;101971.47;5098263;28;20108;-75
2022/08/30 10:13:41;;;;;;;5.18;3.13;;;;;;;25.00;52.62;101984.09;5093729;28;20031;-76
2022/08/30 10:16:39;;;;;;;8.48;3.20;;;;;;;25.05;52.37;101983.25;5097659;28;20055;-75
2022/08/30 10:20:02;;;;;;;5.05;3.22;;;;;;;24.93;52.35;101986.31;5090610;28;20040;-75
2022/08/30 10:22:40;;;;;;;;;;;;;;;24.87;52.14;101971.03;5000025;28;20045;-75
2022/08/30 10:25:14;;;;;;;7.95;2.95;;;;;;;24.37;52.82;101966.59;5012661;28;20396;-75
2022/08/30 10:28:03;;;;;;;4.53;2.70;;;;;;;24.21;54.17;101967.69;5065478;28;20039;-76
2022/08/30 10:33:56;;;;;;;7.40;2.90;;;;;;;24.32;53.35;101969.34;5095129;28;20051;-75
2022/08/30 10:36:29;;;;;;;12.13;3.38;;;;;;;24.17;53.29;101967.44;5094737;28;20503;-75
2022/08/30 10:38:57;;;;;;;5.25;3.10;;;;;;;24.27;54.43;101972.06;5096612;28;20504;-75
2022/08/30 10:42:02;;;;;;;4.80;2.90;;;;;;;24.44;53.66;101960.81;5095419;28;20035;-77
2022/08/30 10:44:43;;;;;;;6.78;2.75;;;;;;;24.68;52.36;101964.53;5063432;28;20560;-76
2022/08/30 10:50:42;;;;;;;7.25;3.10;;;;;;;24.71;51.16;101961.25;5097100;28;20069;-74
2022/08/30 10:56:30;;;;;;;6.57;2.92;;;;;;;24.69;51.70;101963.44;5094680;28;20073;-74
2022/08/30 10:58:57;;;;;;;8.27;3.00;;;;;;;24.66;51.18;101953.88;5092815;28;20062;-76
2022/08/30 11:01:35;;;;;;;7.32;3.00;;;;;;;24.76;51.63;101961.22;5076421;28;20036;-75
2022/08/30 11:07:49;;;;;;;3.92;2.63;;;;;;;25.02;51.01;101965.47;5094677;28;20035;-75
2022/08/30 11:10:42;;;;;;;5.22;2.75;;;;;;;24.89;50.63;101965.25;5076064;28;20108;-75
2022/08/30 11:16:39;;;;;;;4.50;2.50;;;;;;;24.75;52.14;101954.09;5094259;28;20074;-74
2022/08/30 11:22:34;;;;;;;4.75;2.50;;;;;;;25.24;49.56;101965.06;5094341;28;20067;-74
2022/08/30 11:25:06;;;;;;;3.42;2.67;;;;;;;25.20;49.78;101949.47;5097000;28;20048;-76
2022/08/30 11:27:54;;;;;;;6.40;2.90;;;;;;;25.16;49.61;101954.72;5093993;28;20461;-75
2022/08/30 11:37:06;;;;;;;4.43;2.63;;;;;;;24.82;51.43;101954.59;5094114;28;20043;-75
2022/08/30 11:39:47;;;;;;;5.50;2.90;;;;;;;24.76;49.82;101953.00;5075509;28;20020;-75
2022/08/30 11:45:42;;;;;;;5.97;2.90;;;;;;;24.80;50.91;101950.53;5093650;28;20074;-75
2022/08/30 11:48:37;;;;;;;5.82;2.50;;;;;;;24.96;50.43;101947.41;5096756;28;20039;-76
2022/08/30 11:55:01;;;;;;;5.65;2.78;;;;;;;25.02;50.42;101945.50;5093470;28;20034;-76
2022/08/30 11:57:47;;;;;;;5.65;2.65;;;;;;;25.18;49.95;101933.34;5093378;28;20051;-74
2022/08/30 12:00:30;;;;;;;5.40;2.65;;;;;;;25.23;49.52;101927.81;5096349;28;20108;-76
2022/08/30 12:03:00;;;;;;;4.50;3.10;;;;;;;25.16;48.41;101929.25;5093235;28;20027;-76
2022/08/30 12:05:34;;;;;;;4.88;2.92;;;;;;;25.14;50.31;101936.91;5078390;28;20100;-75
2022/08/30 12:11:21;;;;;;;4.53;2.72;;;;;;;25.02;48.76;101935.38;5093728;28;20384;-74
2022/08/30 12:23:47;;;;;;;4.65;2.83;;;;;;;25.55;48.18;101913.56;5093751;28;20058;-76
2022/08/30 12:29:33;;;;;;;7.00;2.33;;;;;;;25.73;46.13;101905.75;5092691;28;20474;-75
2022/08/30 12:35:26;;;;;;;5.82;2.75;;;;;;;25.12;46.55;101923.50;5093064;28;20054;-74
2022/08/30 12:44:36;;;;;;;9.27;2.70;;;;;;;25.28;45.86;101900.41;5093174;28;20493;-74
2022/08/30 12:47:04;;;;;;;5.00;2.20;;;;;;;25.78;45.19;101912.00;5085222;28;20032;-74
2022/08/30 12:49:34;;;;;;;5.60;2.22;;;;;;;26.06;44.32;101904.84;5092549;28;20032;-73
2022/08/30 12:52:33;;;;;;;3.83;2.20;;;;;;;26.09;43.77;101914.41;5095661;28;20119;-73
2022/08/30 12:55:27;;;;;;;5.85;2.50;;;;;;;25.80;44.57;101908.97;5074444;28;20092;-74
2022/08/30 12:58:08;;;;;;;6.80;3.08;;;;;;;26.12;43.69;101900.94;5076130;28;20036;-74
2022/08/30 13:03:59;;;;;;;5.38;2.60;;;;;;;27.06;40.67;101908.44;5092738;28;20061;-75
2022/08/30 13:06:49;;;;;;;4.85;2.58;;;;;;;26.91;41.70;101904.00;5092362;28;20028;-78
2022/08/30 13:09:23;;;;;;;5.20;2.70;;;;;;;26.50;41.65;101906.50;5095398;28;20498;-77
2022/08/30 13:15:16;;;;;;;7.32;2.22;;;;;;;26.14;42.83;101892.41;5092513;28;20506;-77
2022/08/30 13:25:06;;;;;;;4.60;2.47;;;;;;;25.88;42.79;101895.44;5092460;28;20078;-75
2022/08/30 13:30:53;;;;;;;3.72;2.15;;;;;;;25.49;42.81;101876.38;5092450;28;20050;-76
2022/08/30 13:33:19;;;;;;;4.22;2.30;;;;;;;25.93;43.05;101886.34;5092186;28;20028;-75
2022/08/30 13:39:06;;;;;;;7.45;2.50;;;;;;;26.76;40.52;101868.53;5092038;28;20059;-76
2022/08/30 13:41:31;;;;;;;11.38;2.88;;;;;;;26.79;39.84;101865.19;5075838;28;20024;-75
2022/08/30 13:47:19;;;;;;;5.90;2.15;;;;;;;26.25;41.99;101869.22;5095937;28;20043;-76
2022/08/30 13:49:45;;;;;;;4.30;2.38;;;;;;;26.15;41.35;101864.69;5098461;28;20459;-77
2022/08/30 13:52:17;;;;;;;5.35;2.42;;;;;;;26.07;42.14;101867.28;5077353;28;20025;-75
2022/08/30 13:54:42;;;;;;;4.57;2.50;;;;;;;25.94;42.38;101863.31;5080515;28;20138;-75
2022/08/30 13:57:07;;;;;;;4.27;2.20;;;;;;;25.32;43.22;101860.38;5095340;28;20114;-76
2022/08/30 14:02:54;;;;;;;3.38;2.20;;;;;;;25.34;42.05;101860.09;5095253;28;20272;-74
2022/08/30 14:05:22;;;;;;;8.75;2.22;;;;;;;25.46;42.88;101859.72;5097883;28;20146;-74
2022/08/30 14:07:47;;;;;;;5.45;2.38;;;;;;;25.55;42.68;101855.22;5095098;28;20106;-76
2022/08/30 14:10:17;;;;;;;4.57;2.03;;;;;;;25.83;42.83;101851.66;5077317;28;20443;-74
2022/08/30 14:16:06;;;;;;;7.07;2.50;;;;;;;25.59;41.88;101848.88;5095370;28;20084;-75
2022/08/30 14:21:53;;;;;;;5.47;1.95;;;;;;;25.89;42.01;101852.41;5095453;28;20059;-76
2022/08/30 14:27:40;;;;;;;4.55;2.00;;;;;;;25.89;42.30;101844.19;5095252;28;20111;-76
2022/08/30 14:30:06;;;;;;;4.50;1.97;;;;;;;25.88;40.86;101854.34;5097881;28;20123;-76
2022/08/30 14:35:53;;;;;;;4.80;2.08;;;;;;;26.10;42.06;101856.53;5095629;28;20078;-75
2022/08/30 14:38:18;;;;;;;6.28;2.22;;;;;;;26.10;40.63;101852.97;5094614;28;20064;-75
2022/08/30 14:40:43;;;;;;;5.57;2.23;;;;;;;25.91;40.67;101851.00;5097807;28;20040;-75
2022/08/30 14:43:09;;;;;;;4.47;2.20;;;;;;;25.85;41.17;101851.38;5094711;28;20028;-75
2022/08/30 14:48:56;;;;;;;5.05;1.83;;;;;;;25.96;41.56;101846.56;5094728;28;20043;-76
2022/08/30 14:51:22;;;;;;;7.70;2.17;;;;;;;26.04;41.52;101849.50;5094600;28;20032;-76
2022/08/30 14:53:51;;;;;;;6.95;2.05;;;;;;;26.05;41.91;101844.81;5097086;28;20109;-76
2022/08/30 14:56:18;;;;;;;5.97;2.17;;;;;;;25.87;40.14;101839.00;5094108;28;20039;-76
2022/08/30 14:58:44;;;;;;;5.32;2.40;;;;;;;25.70;40.88;101837.81;5097199;28;20071;-76
2022/08/30 15:01:10;;;;;;;4.68;2.20;;;;;;;25.59;40.74;101839.84;5075656;28;20468;-75
2022/08/30 15:06:57;;;;;;;6.45;2.30;;;;;;;25.68;41.35;101829.91;5094171;28;20039;-76
2022/08/30 15:09:23;;;;;;;4.97;2.33;;;;;;;25.71;41.08;101832.06;5096922;28;20048;-76
2022/08/30 15:15:14;;;;;;;4.00;2.20;;;;;;;25.36;40.95;101830.47;5094049;28;20050;-76
2022/08/30 15:21:00;;;;;;;4.38;2.20;;;;;;;25.08;42.60;101825.81;5096991;28;20165;-76
2022/08/30 15:26:47;;;;;;;7.63;2.08;;;;;;;24.93;42.52;101824.84;5094636;28;20047;-75
2022/08/30 15:32:35;;;;;;;6.13;2.20;;;;;;;24.93;42.08;101819.38;5094092;28;20043;-75